createdAt,value
2023-01-11T00:01:52.858Z,10.63
2023-01-11T00:05:57.385Z,11.50
2023-01-11T00:10:04.677Z,10.93
2023-01-11T00:14:09.431Z,12.32
2023-01-11T00:18:13.417Z,7.20
2023-01-11T00:22:16.494Z,6.18
2023-01-11T00:26:19.395Z,7.70
2023-01-11T00:30:22.820Z,7.50
2023-01-11T00:34:25.592Z,10.32
2023-01-11T00:38:46.781Z,6.75
2023-01-11T00:43:07.861Z,8.60
2023-01-11T00:47:33.439Z,6.00
2023-01-11T00:51:36.118Z,5.10
2023-01-11T00:55:38.919Z,4.45
2023-01-11T00:59:41.797Z,1.35
2023-01-11T01:03:44.540Z,4.22
2023-01-11T01:07:47.860Z,3.85
2023-01-11T01:11:50.887Z,5.63
2023-01-11T01:15:58.586Z,7.05
2023-01-11T01:20:01.554Z,5.35
2023-01-11T01:24:05.210Z,7.82
2023-01-11T01:28:07.975Z,4.25
2023-01-11T01:32:10.696Z,4.78
2023-01-11T01:36:13.575Z,3.38
2023-01-11T01:40:16.434Z,2.92
2023-01-11T01:45:07.473Z,4.32
2023-01-11T01:49:15.745Z,2.40
2023-01-11T01:53:35.795Z,3.83
2023-01-11T01:57:43.227Z,2.95
2023-01-11T02:01:49.456Z,2.90
2023-01-11T02:05:53.614Z,6.57
2023-01-11T02:10:05.508Z,5.13
2023-01-11T02:14:13.457Z,6.93
2023-01-11T02:18:18.675Z,4.30
2023-01-11T02:22:24.598Z,4.88
2023-01-11T02:26:55.545Z,4.22
2023-01-11T02:31:10.474Z,5.18
2023-01-11T02:35:32.600Z,3.08
2023-01-11T02:39:52.059Z,1.88
2023-01-11T02:44:29.941Z,1.85
2023-01-11T02:48:58.975Z,1.23
2023-01-11T02:53:27.901Z,3.53
2023-01-11T02:57:32.837Z,4.75
2023-01-11T03:01:51.792Z,7.32
2023-01-11T03:06:23.970Z,7.00
2023-01-11T03:10:54.134Z,7.93
2023-01-11T03:15:19.348Z,9.38
2023-01-11T03:19:24.818Z,7.63
2023-01-11T03:23:41.721Z,8.25
2023-01-11T03:27:49.924Z,4.40
2023-01-11T03:32:12.833Z,7.35
2023-01-11T03:36:23.520Z,6.50
2023-01-11T03:40:34.786Z,8.65
2023-01-11T03:44:47.947Z,5.00
2023-01-11T03:48:58.404Z,3.53
2023-01-11T03:53:04.271Z,5.03
2023-01-11T03:57:22.172Z,1.90
2023-01-11T04:01:25.976Z,1.33
2023-01-11T04:05:29.123Z,1.80
2023-01-11T04:09:31.860Z,2.10
2023-01-11T04:13:34.726Z,1.55
2023-01-11T04:17:38.157Z,5.13
2023-01-11T04:21:40.868Z,5.50
2023-01-11T04:25:43.714Z,6.38
2023-01-11T04:29:46.434Z,7.60
2023-01-11T04:33:49.190Z,8.32
2023-01-11T04:37:58.658Z,6.10
2023-01-11T04:42:19.406Z,2.95
2023-01-11T04:46:23.139Z,2.85
2023-01-11T04:50:27.415Z,4.35
2023-01-11T04:54:30.257Z,4.50
2023-01-11T04:58:38.062Z,5.40
2023-01-11T05:02:41.132Z,5.05
2023-01-11T05:06:44.084Z,9.65
2023-01-11T05:10:53.657Z,6.80
2023-01-11T05:14:57.249Z,7.72
2023-01-11T05:19:01.816Z,7.82
2023-01-11T05:23:04.674Z,5.13
2023-01-11T05:27:07.422Z,7.20
2023-01-11T05:31:10.272Z,6.93
2023-01-11T05:35:13.127Z,8.88
2023-01-11T05:39:15.849Z,9.70
2023-01-11T05:43:18.598Z,5.75
2023-01-11T05:47:21.305Z,8.38
2023-01-11T05:51:37.348Z,9.43
2023-01-11T05:56:09.600Z,7.47
2023-01-11T06:00:28.595Z,5.45
2023-01-11T06:08:42.499Z,5.50
2023-01-11T06:12:45.327Z,6.90
2023-01-11T06:16:50.548Z,7.97
2023-01-11T06:21:01.702Z,7.70
2023-01-11T06:25:04.770Z,7.57
2023-01-11T06:29:09.913Z,9.27
2023-01-11T06:33:13.829Z,6.68
2023-01-11T06:37:20.269Z,12.20
2023-01-11T06:45:29.464Z,6.05
2023-01-11T06:49:32.665Z,8.10
2023-01-11T06:53:39.249Z,6.20
2023-01-11T06:57:43.867Z,5.75
2023-01-11T07:02:00.215Z,6.50
2023-01-11T07:23:25.719Z,7.57
2023-01-11T07:27:36.894Z,8.60
2023-01-11T07:31:49.480Z,12.32
2023-01-11T07:35:53.070Z,12.05
2023-01-11T07:40:00.340Z,17.17
2023-01-11T07:44:11.889Z,15.32
2023-01-11T07:48:21.028Z,13.07
2023-01-11T07:52:38.187Z,15.20
2023-01-11T07:57:43.437Z,9.90
2023-01-11T08:02:55.105Z,11.15
2023-01-11T08:07:01.631Z,12.55
2023-01-11T08:11:23.476Z,13.10
2023-01-11T08:15:28.312Z,14.38
2023-01-11T08:19:32.164Z,13.10
2023-01-11T08:23:36.106Z,13.90
2023-01-11T08:27:40.757Z,16.58
2023-01-11T08:31:49.295Z,18.25
2023-01-11T08:35:58.300Z,9.45
2023-01-11T08:40:04.901Z,11.07
2023-01-11T08:44:29.140Z,7.18
2023-01-11T08:53:18.326Z,12.63
2023-01-11T09:02:13.947Z,15.05
2023-01-11T09:06:33.479Z,17.35
2023-01-11T09:11:09.644Z,18.65
2023-01-11T09:15:18.348Z,26.65
2023-01-11T09:19:33.951Z,17.27
2023-01-11T09:23:41.155Z,12.85
2023-01-11T09:27:51.247Z,20.38
2023-01-11T09:31:59.063Z,13.52
2023-01-11T09:36:03.024Z,18.40
2023-01-11T09:40:07.216Z,18.58
2023-01-11T09:44:16.699Z,16.73
2023-01-11T09:48:33.281Z,13.73
2023-01-11T09:52:41.119Z,17.17
2023-01-11T09:56:53.641Z,16.45
2023-01-11T10:01:04.516Z,14.23
2023-01-11T10:05:31.142Z,13.18
2023-01-11T10:18:22.928Z,18.30
2023-01-11T10:23:53.612Z,13.70
2023-01-11T10:28:02.210Z,13.70
2023-01-11T10:32:57.121Z,13.40
2023-01-11T10:37:24.128Z,15.38
2023-01-11T10:41:52.335Z,16.15
2023-01-11T10:50:23.033Z,14.05
2023-01-11T10:54:33.257Z,13.23
2023-01-11T10:59:09.480Z,12.85
2023-01-11T11:03:33.860Z,14.20
2023-01-11T11:07:45.482Z,11.52
2023-01-11T11:11:58.717Z,13.90
2023-01-11T11:16:35.784Z,13.13
2023-01-11T11:20:41.311Z,11.43
2023-01-11T11:25:03.826Z,11.63
2023-01-11T11:29:10.689Z,11.55
2023-01-11T11:33:21.440Z,12.48
2023-01-11T11:37:40.272Z,10.88
2023-01-11T11:41:53.230Z,11.18
2023-01-11T11:45:59.111Z,11.20
2023-01-11T11:50:42.639Z,13.90
2023-01-11T11:54:58.444Z,10.27
2023-01-11T11:59:16.262Z,10.20
2023-01-11T12:03:34.491Z,9.40
2023-01-11T12:07:54.157Z,20.25
2023-01-11T12:12:01.684Z,15.75
2023-01-11T12:16:08.791Z,12.80
2023-01-11T12:20:24.250Z,13.60
2023-01-11T12:24:28.220Z,12.77
2023-01-11T12:29:03.981Z,14.18
2023-01-11T12:33:43.536Z,12.87
2023-01-11T12:37:47.646Z,14.30
2023-01-11T12:42:14.421Z,13.55
2023-01-11T12:46:50.301Z,9.65
2023-01-11T12:51:38.791Z,11.02
2023-01-11T12:56:09.179Z,12.50
2023-01-11T13:00:43.488Z,11.20
2023-01-11T13:04:54.343Z,10.98
2023-01-11T13:09:20.945Z,10.82
2023-01-11T13:13:51.900Z,11.15
2023-01-11T13:17:57.781Z,12.35
2023-01-11T13:22:04.673Z,9.50
2023-01-11T13:30:28.626Z,9.07
2023-01-11T13:35:05.257Z,7.18
2023-01-11T13:39:29.795Z,7.82
2023-01-11T13:44:02.195Z,9.00
2023-01-11T13:48:57.758Z,8.07
2023-01-11T13:53:29.285Z,9.93
2023-01-11T13:57:47.169Z,14.32
2023-01-11T14:02:15.801Z,11.98
2023-01-11T14:06:28.170Z,10.15
2023-01-11T14:10:37.176Z,10.77
2023-01-11T14:14:45.630Z,15.18
2023-01-11T14:19:14.639Z,14.48
2023-01-11T14:23:20.493Z,10.23
2023-01-11T14:27:54.612Z,10.38
2023-01-11T14:32:05.039Z,8.57
2023-01-11T14:36:49.221Z,12.77
2023-01-11T14:40:55.386Z,8.30
2023-01-11T14:45:16.899Z,10.43
2023-01-11T14:49:42.156Z,13.45
2023-01-11T14:54:09.251Z,11.77
2023-01-11T14:58:32.522Z,10.80
2023-01-11T15:02:40.467Z,10.90
2023-01-11T15:06:55.180Z,12.38
2023-01-11T15:11:23.887Z,12.88
2023-01-11T15:15:47.993Z,16.05
2023-01-11T15:19:52.644Z,15.02
2023-01-11T15:23:58.084Z,20.67
2023-01-11T15:28:38.786Z,17.08
2023-01-11T15:36:54.453Z,17.77
2023-01-11T15:41:17.565Z,18.65
2023-01-11T15:46:38.416Z,19.40
2023-01-11T15:51:03.087Z,17.35
2023-01-11T15:55:40.387Z,12.33
2023-01-11T16:00:20.012Z,10.38
2023-01-11T16:04:33.222Z,11.63
2023-01-11T16:08:50.388Z,23.08
2023-01-11T16:13:24.189Z,21.90
2023-01-11T16:17:27.921Z,21.48
2023-01-11T16:21:34.925Z,18.98
2023-01-11T16:25:41.359Z,22.33
2023-01-11T16:29:50.752Z,14.63
2023-01-11T16:33:53.902Z,15.93
2023-01-11T16:38:01.513Z,15.32
2023-01-11T16:42:06.180Z,11.93
2023-01-11T16:46:36.894Z,14.32
2023-01-11T16:50:44.598Z,11.00
2023-01-11T16:54:49.674Z,10.95
2023-01-11T16:59:16.980Z,11.40
2023-01-11T17:03:25.002Z,17.65
2023-01-11T17:07:30.680Z,15.98
2023-01-11T17:11:45.617Z,13.20
2023-01-11T17:16:03.146Z,11.13
2023-01-11T17:20:23.176Z,17.13
2023-01-11T17:24:27.160Z,21.73
2023-01-11T17:28:30.891Z,23.55
2023-01-11T17:32:41.994Z,24.60
2023-01-11T17:36:46.682Z,27.50
2023-01-11T17:40:49.892Z,25.33
2023-01-11T17:45:13.069Z,25.42
2023-01-11T17:49:26.331Z,26.15
2023-01-11T17:53:32.206Z,26.67
2023-01-11T17:57:35.114Z,30.27
2023-01-11T18:01:38.850Z,32.67
2023-01-11T18:05:43.114Z,26.50
2023-01-11T18:09:51.816Z,32.88
2023-01-11T18:13:58.545Z,28.73
2023-01-11T18:18:01.799Z,31.67
2023-01-11T18:22:24.479Z,31.73
2023-01-11T18:26:29.473Z,33.35
2023-01-11T18:30:32.354Z,25.90
2023-01-11T18:34:35.270Z,33.95
2023-01-11T18:38:38.015Z,34.17
2023-01-11T18:42:41.037Z,33.53
2023-01-11T18:46:43.757Z,32.85
2023-01-11T18:50:48.359Z,34.65
2023-01-11T18:54:51.888Z,30.20
2023-01-11T18:58:54.674Z,38.75
2023-01-11T19:02:57.849Z,113.20
2023-01-11T19:07:00.641Z,38.53
2023-01-11T19:11:04.120Z,28.52
2023-01-11T19:15:08.095Z,26.15
2023-01-11T19:19:11.033Z,32.42
2023-01-11T19:23:13.882Z,16.33
2023-01-11T19:27:16.939Z,19.00
2023-01-11T19:31:19.717Z,32.30
2023-01-11T19:35:25.960Z,20.88
2023-01-11T19:39:29.101Z,38.83
2023-01-11T19:43:31.983Z,25.88
2023-01-11T19:47:35.073Z,16.00
2023-01-11T19:51:37.953Z,23.23
2023-01-11T19:55:41.147Z,18.25
2023-01-11T19:59:44.568Z,17.13
2023-01-11T20:03:47.466Z,18.60
2023-01-11T20:07:50.450Z,25.30
2023-01-11T20:11:54.661Z,18.98
2023-01-11T20:15:57.671Z,17.33
2023-01-11T20:20:00.716Z,16.55
2023-01-11T20:24:04.165Z,14.57
2023-01-11T20:28:06.942Z,15.10
2023-01-11T20:32:31.083Z,20.10
2023-01-11T20:36:33.343Z,20.10
2023-01-11T20:40:39.092Z,21.98
2023-01-11T20:44:42.126Z,19.35
2023-01-11T20:48:48.459Z,11.13
2023-01-11T20:52:51.916Z,15.75
2023-01-11T20:56:54.870Z,18.15
2023-01-11T21:01:04.822Z,24.90
2023-01-11T21:05:08.070Z,29.35
2023-01-11T21:09:13.519Z,33.53
2023-01-11T21:13:16.650Z,31.95
2023-01-11T21:17:19.974Z,31.13
2023-01-11T21:21:23.451Z,32.33
2023-01-11T21:25:26.292Z,30.38
2023-01-11T21:29:29.145Z,27.15
2023-01-11T21:33:35.156Z,27.08
2023-01-11T21:37:37.852Z,28.37
2023-01-11T21:41:55.802Z,27.85
2023-01-11T21:45:58.886Z,27.05
2023-01-11T21:50:01.716Z,26.58
2023-01-11T21:54:07.172Z,27.33
2023-01-11T21:58:09.988Z,23.65
2023-01-11T22:02:12.827Z,23.40
2023-01-11T22:06:16.773Z,22.17
2023-01-11T22:10:20.466Z,27.23
2023-01-11T22:14:23.537Z,24.80
2023-01-11T22:18:26.296Z,29.00
2023-01-11T22:22:30.097Z,38.38
2023-01-11T22:26:35.790Z,37.60
2023-01-11T22:30:38.730Z,31.17
2023-01-11T22:34:41.436Z,32.50
2023-01-11T22:38:44.171Z,29.98
2023-01-11T22:42:46.982Z,31.95
2023-01-11T22:46:50.084Z,34.63
2023-01-11T22:50:53.101Z,30.00
2023-01-11T22:54:58.339Z,28.75
2023-01-11T22:59:06.192Z,29.63
2023-01-11T23:03:09.797Z,27.33
2023-01-11T23:07:12.880Z,26.80
2023-01-11T23:11:46.651Z,26.05
2023-01-11T23:15:56.130Z,26.77
2023-01-11T23:19:58.899Z,26.38
2023-01-11T23:24:02.729Z,23.77
2023-01-11T23:28:05.452Z,26.48
2023-01-11T23:32:08.330Z,26.27
2023-01-11T23:36:11.937Z,16.65
2023-01-11T23:40:14.759Z,12.75
2023-01-11T23:44:18.682Z,10.45
2023-01-11T23:48:21.412Z,9.75
2023-01-11T23:52:30.241Z,9.55
2023-01-11T23:56:34.274Z,12.85
